sensor_id;sensor_type;location;lat;lon;timestamp;pressure;altitude;pressure_sealevel;temperature;humidity
28911;BME280;16028;42.642;23.310;2023-03-22T00:01:21;93659.59;;;9.26;100.00
28911;BME280;16028;42.642;23.310;2023-03-22T00:03:49;93653.88;;;9.22;100.00
28911;BME280;16028;42.642;23.310;2023-03-22T00:06:16;93661.31;;;9.17;100.00
28911;BME280;16028;42.642;23.310;2023-03-22T00:08:43;93653.00;;;9.14;100.00
28911;BME280;16028;42.642;23.310;2023-03-22T00:11:10;93652.47;;;9.10;100.00
28911;BME280;16028;42.642;23.310;2023-03-22T00:13:37;93655.34;;;9.07;100.00
28911;BME280;16028;42.642;23.310;2023-03-22T00:16:04;93656.34;;;9.06;100.00
28911;BME280;16028;42.642;23.310;2023-03-22T00:18:32;93651.16;;;9.06;100.00
28911;BME280;16028;42.642;23.310;2023-03-22T00:20:58;93650.16;;;9.07;100.00
28911;BME280;16028;42.642;23.310;2023-03-22T00:23:25;93654.41;;;9.08;100.00
28911;BME280;16028;42.642;23.310;2023-03-22T00:25:52;93651.66;;;9.10;100.00
28911;BME280;16028;42.642;23.310;2023-03-22T00:28:19;93648.91;;;9.11;100.00
28911;BME280;16028;42.642;23.310;2023-03-22T00:30:52;93647.56;;;9.07;100.00
28911;BME280;16028;42.642;23.310;2023-03-22T00:33:19;93649.34;;;9.07;100.00
28911;BME280;16028;42.642;23.310;2023-03-22T00:35:51;93650.16;;;9.07;100.00
28911;BME280;16028;42.642;23.310;2023-03-22T00:38:17;93643.56;;;9.13;100.00
28911;BME280;16028;42.642;23.310;2023-03-22T00:40:44;93640.31;;;9.11;100.00
28911;BME280;16028;42.642;23.310;2023-03-22T00:43:11;93634.00;;;9.13;100.00
28911;BME280;16028;42.642;23.310;2023-03-22T00:45:38;93638.53;;;9.11;100.00
28911;BME280;16028;42.642;23.310;2023-03-22T00:48:05;93637.06;;;9.26;100.00
28911;BME280;16028;42.642;23.310;2023-03-22T00:50:31;93641.50;;;9.16;100.00
28911;BME280;16028;42.642;23.310;2023-03-22T00:52:59;93638.03;;;9.08;100.00
28911;BME280;16028;42.642;23.310;2023-03-22T00:55:26;93635.59;;;9.06;100.00
28911;BME280;16028;42.642;23.310;2023-03-22T00:57:52;93632.84;;;9.08;100.00
28911;BME280;16028;42.642;23.310;2023-03-22T01:00:19;93637.72;;;9.11;100.00
28911;BME280;16028;42.642;23.310;2023-03-22T01:02:45;93631.66;;;9.02;100.00
28911;BME280;16028;42.642;23.310;2023-03-22T01:05:12;93634.78;;;9.06;100.00
28911;BME280;16028;42.642;23.310;2023-03-22T01:07:40;93631.19;;;9.07;100.00
28911;BME280;16028;42.642;23.310;2023-03-22T01:10:08;93630.75;;;9.11;100.00
28911;BME280;16028;42.642;23.310;2023-03-22T01:12:35;93625.22;;;9.06;100.00
28911;BME280;16028;42.642;23.310;2023-03-22T01:15:02;93620.69;;;9.08;100.00
28911;BME280;16028;42.642;23.310;2023-03-22T01:17:28;93626.59;;;9.00;100.00
28911;BME280;16028;42.642;23.310;2023-03-22T01:19:55;93625.47;;;9.03;100.00
28911;BME280;16028;42.642;23.310;2023-03-22T01:22:21;93624.41;;;9.06;100.00
28911;BME280;16028;42.642;23.310;2023-03-22T01:24:48;93618.22;;;9.07;100.00
28911;BME280;16028;42.642;23.310;2023-03-22T01:27:16;93624.09;;;9.09;100.00
28911;BME280;16028;42.642;23.310;2023-03-22T01:29:42;93625.22;;;9.06;100.00
28911;BME280;16028;42.642;23.310;2023-03-22T01:32:09;93617.78;;;9.11;100.00
28911;BME280;16028;42.642;23.310;2023-03-22T01:34:38;93616.16;;;9.10;100.00
28911;BME280;16028;42.642;23.310;2023-03-22T01:37:04;93612.06;;;9.08;100.00
28911;BME280;16028;42.642;23.310;2023-03-22T01:39:31;93613.19;;;9.05;100.00
28911;BME280;16028;42.642;23.310;2023-03-22T01:41:57;93612.50;;;9.03;100.00
28911;BME280;16028;42.642;23.310;2023-03-22T01:44:29;93611.47;;;9.14;100.00
28911;BME280;16028;42.642;23.310;2023-03-22T01:46:56;93614.06;;;9.14;100.00
28911;BME280;16028;42.642;23.310;2023-03-22T01:49:23;93610.13;;;9.10;100.00
28911;BME280;16028;42.642;23.310;2023-03-22T01:51:50;93599.47;;;9.13;100.00
28911;BME280;16028;42.642;23.310;2023-03-22T01:54:19;93605.16;;;9.16;100.00
28911;BME280;16028;42.642;23.310;2023-03-22T01:56:50;93617.19;;;9.17;100.00
28911;BME280;16028;42.642;23.310;2023-03-22T01:59:16;93610.66;;;9.13;100.00
28911;BME280;16028;42.642;23.310;2023-03-22T02:01:44;93610.13;;;9.10;100.00
28911;BME280;16028;42.642;23.310;2023-03-22T02:04:12;93611.47;;;9.14;100.00
28911;BME280;16028;42.642;23.310;2023-03-22T02:06:40;93610.00;;;9.11;100.00
28911;BME280;16028;42.642;23.310;2023-03-22T02:09:08;93607.09;;;9.14;100.00
28911;BME280;16028;42.642;23.310;2023-03-22T02:11:35;93596.88;;;9.13;100.00
28911;BME280;16028;42.642;23.310;2023-03-22T02:16:54;93607.34;;;9.21;100.00
28911;BME280;16028;42.642;23.310;2023-03-22T02:19:42;93613.25;;;9.13;100.00
28911;BME280;16028;42.642;23.310;2023-03-22T02:25:19;93605.53;;;9.03;100.00
28911;BME280;16028;42.642;23.310;2023-03-22T02:28:00;93609.44;;;8.99;100.00
28911;BME280;16028;42.642;23.310;2023-03-22T02:30:38;93602.06;;;8.95;100.00
28911;BME280;16028;42.642;23.310;2023-03-22T02:33:23;93612.75;;;8.92;100.00
28911;BME280;16028;42.642;23.310;2023-03-22T02:36:00;93621.19;;;8.94;100.00
28911;BME280;16028;42.642;23.310;2023-03-22T02:41:29;93617.34;;;9.16;100.00
28911;BME280;16028;42.642;23.310;2023-03-22T02:44:00;93623.34;;;9.16;100.00
28911;BME280;16028;42.642;23.310;2023-03-22T02:46:32;93628.28;;;9.10;100.00
28911;BME280;16028;42.642;23.310;2023-03-22T02:49:01;93628.47;;;9.08;100.00
28911;BME280;16028;42.642;23.310;2023-03-22T02:51:31;93634.91;;;9.04;100.00
28911;BME280;16028;42.642;23.310;2023-03-22T02:54:00;93626.00;;;9.07;100.00
28911;BME280;16028;42.642;23.310;2023-03-22T02:56:29;93631.19;;;9.07;100.00
28911;BME280;16028;42.642;23.310;2023-03-22T02:58:58;93626.81;;;9.07;100.00
28911;BME280;16028;42.642;23.310;2023-03-22T03:01:26;93633.66;;;9.08;100.00
28911;BME280;16028;42.642;23.310;2023-03-22T03:03:54;93635.13;;;9.11;100.00
28911;BME280;16028;42.642;23.310;2023-03-22T03:06:22;93629.28;;;9.09;100.00
28911;BME280;16028;42.642;23.310;2023-03-22T03:08:51;93629.28;;;9.09;100.00
28911;BME280;16028;42.642;23.310;2023-03-22T03:11:18;93632.00;;;9.07;100.00
28911;BME280;16028;42.642;23.310;2023-03-22T03:13:47;93625.47;;;9.03;100.00
28911;BME280;16028;42.642;23.310;2023-03-22T03:16:14;93635.06;;;9.02;100.00
28911;BME280;16028;42.642;23.310;2023-03-22T03:18:42;93638.09;;;8.98;100.00
28911;BME280;16028;42.642;23.310;2023-03-22T03:21:15;93640.56;;;8.99;100.00
28911;BME280;16028;42.642;23.310;2023-03-22T03:23:47;93639.19;;;8.95;100.00
28911;BME280;16028;42.642;23.310;2023-03-22T03:26:19;93636.59;;;8.95;100.00
28911;BME280;16028;42.642;23.310;2023-03-22T03:28:51;93639.50;;;8.92;100.00
28911;BME280;16028;42.642;23.310;2023-03-22T03:31:27;93641.28;;;8.92;100.00
28911;BME280;16028;42.642;23.310;2023-03-22T03:33:58;93641.63;;;8.97;100.00
28911;BME280;16028;42.642;23.310;2023-03-22T03:36:27;93638.09;;;8.98;100.00
28911;BME280;16028;42.642;23.310;2023-03-22T03:38:56;93642.63;;;8.96;100.00
28911;BME280;16028;42.642;23.310;2023-03-22T03:41:24;93637.84;;;8.91;100.00
28911;BME280;16028;42.642;23.310;2023-03-22T03:43:54;93644.69;;;8.92;100.00
28911;BME280;16028;42.642;23.310;2023-03-22T03:46:22;93643.88;;;8.92;100.00
28911;BME280;16028;42.642;23.310;2023-03-22T03:48:49;93648.22;;;8.91;100.00
28911;BME280;16028;42.642;23.310;2023-03-22T03:51:17;93650.41;;;8.96;100.00
28911;BME280;16028;42.642;23.310;2023-03-22T03:53:44;93649.41;;;8.97;100.00
28911;BME280;16028;42.642;23.310;2023-03-22T03:56:11;93644.75;;;9.00;100.00
28911;BME280;16028;42.642;23.310;2023-03-22T03:58:37;93650.16;;;9.07;100.00
28911;BME280;16028;42.642;23.310;2023-03-22T04:01:06;93652.63;;;9.09;100.00
28911;BME280;16028;42.642;23.310;2023-03-22T04:03:32;93651.00;;;9.08;100.00
28911;BME280;16028;42.642;23.310;2023-03-22T04:05:59;93653.59;;;9.08;100.00
28911;BME280;16028;42.642;23.310;2023-03-22T04:08:26;93655.34;;;9.07;100.00
28911;BME280;16028;42.642;23.310;2023-03-22T04:10:52;93656.19;;;9.08;100.00
28911;BME280;16028;42.642;23.310;2023-03-22T04:13:19;93652.47;;;9.10;100.00
28911;BME280;16028;42.642;23.310;2023-03-22T04:15:45;93649.81;;;9.02;100.00
28911;BME280;16028;42.642;23.310;2023-03-22T04:18:13;93652.00;;;8.97;100.00
28911;BME280;16028;42.642;23.310;2023-03-22T04:20:40;93657.38;;;8.95;100.00
28911;BME280;16028;42.642;23.310;2023-03-22T04:23:07;93655.59;;;8.96;100.00
28911;BME280;16028;42.642;23.310;2023-03-22T04:25:35;93651.34;;;8.95;100.00
28911;BME280;16028;42.642;23.310;2023-03-22T04:28:02;93657.78;;;8.91;100.00
28911;BME280;16028;42.642;23.310;2023-03-22T04:30:29;93656.91;;;9.00;100.00
28911;BME280;16028;42.642;23.310;2023-03-22T04:33:00;93651.34;;;8.95;100.00
28911;BME280;16028;42.642;23.310;2023-03-22T04:35:32;93659.50;;;9.00;100.00
28911;BME280;16028;42.642;23.310;2023-03-22T04:37:59;93663.22;;;8.97;100.00
28911;BME280;16028;42.642;23.310;2023-03-22T04:40:26;93670.31;;;8.95;100.00
28911;BME280;16028;42.642;23.310;2023-03-22T04:42:59;93664.97;;;8.97;100.00
28911;BME280;16028;42.642;23.310;2023-03-22T04:45:28;93671.50;;;9.01;100.00
28911;BME280;16028;42.642;23.310;2023-03-22T04:47:57;93669.88;;;9.00;100.00
28911;BME280;16028;42.642;23.310;2023-03-22T04:50:23;93669.88;;;9.00;100.00
28911;BME280;16028;42.642;23.310;2023-03-22T04:52:53;93680.84;;;8.94;100.00
28911;BME280;16028;42.642;23.310;2023-03-22T04:55:20;93674.75;;;8.85;100.00
28911;BME280;16028;42.642;23.310;2023-03-22T04:57:46;93681.41;;;8.88;100.00
28911;BME280;16028;42.642;23.310;2023-03-22T05:00:13;93681.13;;;8.91;100.00
28911;BME280;16028;42.642;23.310;2023-03-22T05:02:41;93693.16;;;8.92;100.00
28911;BME280;16028;42.642;23.310;2023-03-22T05:05:08;93687.59;;;8.87;100.00
28911;BME280;16028;42.642;23.310;2023-03-22T05:07:34;93691.97;;;8.86;100.00
28911;BME280;16028;42.642;23.310;2023-03-22T05:10:05;93691.44;;;8.83;100.00
28911;BME280;16028;42.642;23.310;2023-03-22T05:12:32;93687.84;;;8.84;100.00
28911;BME280;16028;42.642;23.310;2023-03-22T05:15:01;93689.50;;;8.85;100.00
28911;BME280;16028;42.642;23.310;2023-03-22T05:17:30;93685.13;;;8.85;100.00
28911;BME280;16028;42.642;23.310;2023-03-22T05:19:56;93695.75;;;8.92;100.00
28911;BME280;16028;42.642;23.310;2023-03-22T05:22:23;93697.22;;;8.94;100.00
28911;BME280;16028;42.642;23.310;2023-03-22T05:24:49;93696.56;;;8.92;100.00
28911;BME280;16028;42.642;23.310;2023-03-22T05:27:17;93699.00;;;8.94;100.00
28911;BME280;16028;42.642;23.310;2023-03-22T05:29:55;93701.97;;;8.99;100.00
28911;BME280;16028;42.642;23.310;2023-03-22T05:32:21;93702.94;;;8.98;100.00
28911;BME280;16028;42.642;23.310;2023-03-22T05:34:49;93701.44;;;8.95;100.00
28911;BME280;16028;42.642;23.310;2023-03-22T05:37:16;93704.22;;;8.84;100.00
28911;BME280;16028;42.642;23.310;2023-03-22T05:39:45;93711.47;;;8.81;100.00
28911;BME280;16028;42.642;23.310;2023-03-22T05:42:11;93714.03;;;8.90;100.00
28911;BME280;16028;42.642;23.310;2023-03-22T05:44:39;93717.44;;;8.91;100.00
28911;BME280;16028;42.642;23.310;2023-03-22T05:47:06;93705.16;;;8.93;100.00
28911;BME280;16028;42.642;23.310;2023-03-22T05:49:32;93716.78;;;8.89;100.00
28911;BME280;16028;42.642;23.310;2023-03-22T05:51:59;93711.59;;;8.89;100.00
28911;BME280;16028;42.642;23.310;2023-03-22T05:54:28;93720.03;;;8.91;100.00
28911;BME280;16028;42.642;23.310;2023-03-22T05:56:55;93728.22;;;8.96;100.00
28911;BME280;16028;42.642;23.310;2023-03-22T05:59:21;93726.56;;;8.95;100.00
28911;BME280;16028;42.642;23.310;2023-03-22T06:01:49;93733.78;;;9.01;100.00
28911;BME280;16028;42.642;23.310;2023-03-22T06:04:16;93734.28;;;9.04;100.00
28911;BME280;16028;42.642;23.310;2023-03-22T06:06:45;93726.50;;;9.04;100.00
28911;BME280;16028;42.642;23.310;2023-03-22T06:09:11;93732.38;;;9.07;100.00
28911;BME280;16028;42.642;23.310;2023-03-22T06:11:38;93732.81;;;9.02;100.00
28911;BME280;16028;42.642;23.310;2023-03-22T06:14:05;93733.63;;;9.02;100.00
28911;BME280;16028;42.642;23.310;2023-03-22T06:16:31;93735.13;;;9.05;100.00
28911;BME280;16028;42.642;23.310;2023-03-22T06:18:59;93738.00;;;9.02;100.00
28911;BME280;16028;42.642;23.310;2023-03-22T06:21:26;93729.25;;;9.03;100.00
28911;BME280;16028;42.642;23.310;2023-03-22T06:23:52;93734.72;;;9.00;100.00
28911;BME280;16028;42.642;23.310;2023-03-22T06:26:19;93732.81;;;9.02;100.00
28911;BME280;16028;42.642;23.310;2023-03-22T06:28:45;93736.19;;;9.12;100.00
28911;BME280;16028;42.642;23.310;2023-03-22T06:31:12;93739.97;;;9.18;100.00
28911;BME280;16028;42.642;23.310;2023-03-22T06:33:38;93740.25;;;9.15;100.00
28911;BME280;16028;42.642;23.310;2023-03-22T06:36:07;93741.66;;;9.09;100.00
28911;BME280;16028;42.642;23.310;2023-03-22T06:38:33;93751.06;;;9.10;100.00
28911;BME280;16028;42.642;23.310;2023-03-22T06:41:00;93742.63;;;9.26;100.00
28911;BME280;16028;42.642;23.310;2023-03-22T06:43:26;93747.88;;;9.16;100.00
28911;BME280;16028;42.642;23.310;2023-03-22T06:45:52;93751.16;;;9.18;100.00
28911;BME280;16028;42.642;23.310;2023-03-22T06:48:21;93753.16;;;9.24;100.00
28911;BME280;16028;42.642;23.310;2023-03-22T06:50:47;93747.75;;;9.18;100.00
28911;BME280;16028;42.642;23.310;2023-03-22T06:53:15;93756.13;;;9.29;100.00
28911;BME280;16028;42.642;23.310;2023-03-22T06:55:42;93754.28;;;9.39;100.00
28911;BME280;16028;42.642;23.310;2023-03-22T06:58:08;93763.72;;;9.40;100.00
28911;BME280;16028;42.642;23.310;2023-03-22T07:00:35;93752.22;;;9.43;100.00
28911;BME280;16028;42.642;23.310;2023-03-22T07:03:02;93765.06;;;9.44;100.00
28911;BME280;16028;42.642;23.310;2023-03-22T07:05:29;93764.38;;;9.42;100.00
28911;BME280;16028;42.642;23.310;2023-03-22T07:07:56;93769.88;;;9.39;100.00
28911;BME280;16028;42.642;23.310;2023-03-22T07:10:24;93773.88;;;9.34;100.00
28911;BME280;16028;42.642;23.310;2023-03-22T07:12:50;93777.13;;;9.36;100.00
28911;BME280;16028;42.642;23.310;2023-03-22T07:15:17;93774.09;;;9.40;100.00
28911;BME280;16028;42.642;23.310;2023-03-22T07:17:48;93780.06;;;9.50;100.00
28911;BME280;16028;42.642;23.310;2023-03-22T07:20:14;93778.72;;;9.46;100.00
28911;BME280;16028;42.642;23.310;2023-03-22T07:22:41;93780.91;;;9.41;100.00
28911;BME280;16028;42.642;23.310;2023-03-22T07:25:08;93782.84;;;9.39;100.00
28911;BME280;16028;42.642;23.310;2023-03-22T07:27:36;93787.09;;;9.40;100.00
28911;BME280;16028;42.642;23.310;2023-03-22T07:30:03;93792.59;;;9.55;100.00
28911;BME280;16028;42.642;23.310;2023-03-22T07:32:30;93788.34;;;9.54;100.00
28911;BME280;16028;42.642;23.310;2023-03-22T07:34:59;93789.03;;;9.56;100.00
28911;BME280;16028;42.642;23.310;2023-03-22T07:37:25;93793.84;;;9.51;100.00
28911;BME280;16028;42.642;23.310;2023-03-22T07:39:52;93798.47;;;9.57;100.00
28911;BME280;16028;42.642;23.310;2023-03-22T07:42:18;93796.28;;;9.70;100.00
28911;BME280;16028;42.642;23.310;2023-03-22T07:44:46;93794.91;;;9.76;100.00
28911;BME280;16028;42.642;23.310;2023-03-22T07:47:13;93794.63;;;9.79;100.00
28911;BME280;16028;42.642;23.310;2023-03-22T07:49:40;93802.84;;;9.74;100.00
28911;BME280;16028;42.642;23.310;2023-03-22T07:52:07;93802.38;;;9.61;100.00
28911;BME280;16028;42.642;23.310;2023-03-22T07:54:33;93801.19;;;9.73;100.00
28911;BME280;16028;42.642;23.310;2023-03-22T07:57:00;93805.44;;;9.74;100.00
28911;BME280;16028;42.642;23.310;2023-03-22T07:59:27;93806.63;;;9.62;100.00
28911;BME280;16028;42.642;23.310;2023-03-22T08:01:54;93809.66;;;9.57;100.00
28911;BME280;16028;42.642;23.310;2023-03-22T08:04:21;93816.63;;;9.57;100.00
28911;BME280;16028;42.642;23.310;2023-03-22T08:06:47;93804.03;;;9.62;100.00
28911;BME280;16028;42.642;23.310;2023-03-22T08:09:15;93800.75;;;9.60;100.00
28911;BME280;16028;42.642;23.310;2023-03-22T08:11:41;93803.50;;;9.58;100.00
28911;BME280;16028;42.642;23.310;2023-03-22T08:14:08;93804.44;;;9.57;100.00
28911;BME280;16028;42.642;23.310;2023-03-22T08:16:35;93805.66;;;9.63;100.00
28911;BME280;16028;42.642;23.310;2023-03-22T08:19:03;93804.09;;;9.70;100.00
28911;BME280;16028;42.642;23.310;2023-03-22T08:21:30;93811.75;;;9.72;100.00
28911;BME280;16028;42.642;23.310;2023-03-22T08:23:57;93805.72;;;9.71;100.00
28911;BME280;16028;42.642;23.310;2023-03-22T08:26:23;93818.59;;;9.73;100.00
28911;BME280;16028;42.642;23.310;2023-03-22T08:28:50;93816.94;;;9.72;100.00
28911;BME280;16028;42.642;23.310;2023-03-22T08:31:16;93821.84;;;9.75;100.00
28911;BME280;16028;42.642;23.310;2023-03-22T08:33:44;93807.72;;;9.77;100.00
28911;BME280;16028;42.642;23.310;2023-03-22T08:36:13;93813.31;;;9.82;100.00
28911;BME280;16028;42.642;23.310;2023-03-22T08:38:40;93814.81;;;9.85;100.00
28911;BME280;16028;42.642;23.310;2023-03-22T08:41:09;93818.75;;;9.89;100.00
28911;BME280;16028;42.642;23.310;2023-03-22T08:43:36;93815.38;;;9.96;100.00
28911;BME280;16028;42.642;23.310;2023-03-22T08:46:03;93813.59;;;9.97;100.00
28911;BME280;16028;42.642;23.310;2023-03-22T08:48:29;93820.75;;;9.95;100.00
28911;BME280;16028;42.642;23.310;2023-03-22T08:50:56;93818.28;;;9.93;100.00
28911;BME280;16028;42.642;23.310;2023-03-22T08:53:24;93822.81;;;9.91;100.00
28911;BME280;16028;42.642;23.310;2023-03-22T08:55:50;93823.41;;;9.85;100.00
28911;BME280;16028;42.642;23.310;2023-03-22T08:58:17;93823.41;;;9.85;100.00
28911;BME280;16028;42.642;23.310;2023-03-22T09:00:44;93829.63;;;9.92;100.00
28911;BME280;16028;42.642;23.310;2023-03-22T09:03:11;93835.28;;;9.88;100.00
28911;BME280;16028;42.642;23.310;2023-03-22T09:05:40;93831.88;;;9.87;100.00
28911;BME280;16028;42.642;23.310;2023-03-22T09:08:07;93835.28;;;9.88;100.00
28911;BME280;16028;42.642;23.310;2023-03-22T09:10:36;93839.53;;;9.89;100.00
28911;BME280;16028;42.642;23.310;2023-03-22T09:13:03;93834.03;;;9.92;100.00
28911;BME280;16028;42.642;23.310;2023-03-22T09:15:29;93840.13;;;10.00;100.00
28911;BME280;16028;42.642;23.310;2023-03-22T09:17:56;93836.03;;;9.98;100.00
28911;BME280;16028;42.642;23.310;2023-03-22T09:20:22;93841.16;;;10.07;100.00
28911;BME280;16028;42.642;23.310;2023-03-22T09:22:50;93841.69;;;10.11;100.00
28911;BME280;16028;42.642;23.310;2023-03-22T09:25:16;93838.69;;;10.06;100.00
28911;BME280;16028;42.642;23.310;2023-03-22T09:27:44;93849.63;;;9.92;100.00
28911;BME280;16028;42.642;23.310;2023-03-22T09:30:11;93841.44;;;9.87;100.00
28911;BME280;16028;42.642;23.310;2023-03-22T09:32:38;93845.38;;;9.91;100.00
28911;BME280;16028;42.642;23.310;2023-03-22T09:35:04;93840.47;;;9.88;100.00
28911;BME280;16028;42.642;23.310;2023-03-22T09:37:31;93840.47;;;9.88;100.00
28911;BME280;16028;42.642;23.310;2023-03-22T09:39:58;93843.53;;;10.01;100.00
28911;BME280;16028;42.642;23.310;2023-03-22T09:42:27;93847.38;;;9.97;100.00
28911;BME280;16028;42.642;23.310;2023-03-22T09:44:56;93847.03;;;9.92;100.00
28911;BME280;16028;42.642;23.310;2023-03-22T09:47:27;93840.03;;;9.92;100.00
28911;BME280;16028;42.642;23.310;2023-03-22T09:50:00;93841.88;;;10.00;100.00
28911;BME280;16028;42.642;23.310;2023-03-22T09:52:28;93834.19;;;10.08;100.00
28911;BME280;16028;42.642;23.310;2023-03-22T09:54:55;93835.28;;;10.05;100.00
28911;BME280;16028;42.642;23.310;2023-03-22T09:57:25;93838.16;;;10.02;100.00
28911;BME280;16028;42.642;23.310;2023-03-22T09:59:56;93838.69;;;10.06;100.00
28911;BME280;16028;42.642;23.310;2023-03-22T10:02:33;93838.41;;;10.09;100.00
28911;BME280;16028;42.642;23.310;2023-03-22T10:05:03;93841.00;;;10.09;100.00
28911;BME280;16028;42.642;23.310;2023-03-22T10:07:50;93839.69;;;10.05;100.00
28911;BME280;16028;42.642;23.310;2023-03-22T10:10:18;93840.81;;;10.20;100.00
28911;BME280;16028;42.642;23.310;2023-03-22T10:12:48;93848.06;;;10.34;100.00
28911;BME280;16028;42.642;23.310;2023-03-22T10:15:20;93851.56;;;10.43;100.00
28911;BME280;16028;42.642;23.310;2023-03-22T10:17:50;93856.69;;;10.35;100.00
28911;BME280;16028;42.642;23.310;2023-03-22T10:20:20;93855.00;;;10.26;100.00
28911;BME280;16028;42.642;23.310;2023-03-22T10:22:49;93856.13;;;10.23;100.00
28911;BME280;16028;42.642;23.310;2023-03-22T10:25:30;93852.88;;;10.11;100.00
28911;BME280;16028;42.642;23.310;2023-03-22T10:27:58;93854.16;;;10.07;100.00
28911;BME280;16028;42.642;23.310;2023-03-22T10:30:26;93861.44;;;10.04;100.00
28911;BME280;16028;42.642;23.310;2023-03-22T10:32:56;93856.81;;;9.98;100.00
28911;BME280;16028;42.642;23.310;2023-03-22T10:35:25;93859.13;;;10.01;100.00
28911;BME280;16028;42.642;23.310;2023-03-22T10:37:51;93843.66;;;9.99;100.00
28911;BME280;16028;42.642;23.310;2023-03-22T10:40:20;93852.50;;;9.89;100.00
28911;BME280;16028;42.642;23.310;2023-03-22T10:42:51;93851.69;;;9.88;100.00
28911;BME280;16028;42.642;23.310;2023-03-22T10:45:18;93854.34;;;9.96;100.00
28911;BME280;16028;42.642;23.310;2023-03-22T10:47:47;93850.44;;;10.10;100.00
28911;BME280;16028;42.642;23.310;2023-03-22T10:50:16;93852.50;;;10.06;100.00
28911;BME280;16028;42.642;23.310;2023-03-22T10:52:44;93861.25;;;10.05;100.00
28911;BME280;16028;42.642;23.310;2023-03-22T10:55:14;93853.16;;;10.08;100.00
28911;BME280;16028;42.642;23.310;2023-03-22T10:57:41;93852.22;;;10.09;100.00
28911;BME280;16028;42.642;23.310;2023-03-22T11:00:08;93847.84;;;10.10;100.00
28911;BME280;16028;42.642;23.310;2023-03-22T11:02:42;93846.72;;;10.13;100.00
28911;BME280;16028;42.642;23.310;2023-03-22T11:05:17;93849.28;;;10.22;100.00
28911;BME280;16028;42.642;23.310;2023-03-22T11:07:44;93851.34;;;10.36;100.00
28911;BME280;16028;42.642;23.310;2023-03-22T11:10:12;93841.47;;;10.40;100.00
28911;BME280;16028;42.642;23.310;2023-03-22T11:12:46;93846.16;;;10.36;100.00
28911;BME280;16028;42.642;23.310;2023-03-22T11:15:22;93846.28;;;10.35;100.00
28911;BME280;16028;42.642;23.310;2023-03-22T11:17:49;93841.84;;;10.27;100.00
28911;BME280;16028;42.642;23.310;2023-03-22T11:20:17;93846.66;;;10.22;100.00
28911;BME280;16028;42.642;23.310;2023-03-22T11:22:44;93840.50;;;10.23;100.00
28911;BME280;16028;42.642;23.310;2023-03-22T11:25:12;93837.75;;;10.25;100.00
28911;BME280;16028;42.642;23.310;2023-03-22T11:27:48;93839.25;;;10.27;100.00
28911;BME280;16028;42.642;23.310;2023-03-22T11:30:17;93837.31;;;10.29;100.00
28911;BME280;16028;42.642;23.310;2023-03-22T11:32:45;93834.94;;;10.36;100.00
28911;BME280;16028;42.642;23.310;2023-03-22T11:35:12;93838.25;;;10.46;100.00
28911;BME280;16028;42.642;23.310;2023-03-22T11:37:41;93836.97;;;10.50;100.00
28911;BME280;16028;42.642;23.310;2023-03-22T11:40:12;93831.41;;;10.45;100.00
28911;BME280;16028;42.642;23.310;2023-03-22T11:42:39;93827.28;;;10.60;100.00
28911;BME280;16028;42.642;23.310;2023-03-22T11:45:06;93833.31;;;10.60;100.00
28911;BME280;16028;42.642;23.310;2023-03-22T11:47:34;93824.88;;;10.58;100.00
28911;BME280;16028;42.642;23.310;2023-03-22T11:50:02;93830.16;;;10.49;100.00
28911;BME280;16028;42.642;23.310;2023-03-22T11:52:29;93829.06;;;10.34;100.00
28911;BME280;16028;42.642;23.310;2023-03-22T11:54:57;93834.84;;;10.28;100.00
28911;BME280;16028;42.642;23.310;2023-03-22T11:57:25;93832.78;;;10.31;100.00
28911;BME280;16028;42.642;23.310;2023-03-22T11:59:54;93837.97;;;10.31;100.00
28911;BME280;16028;42.642;23.310;2023-03-22T12:02:22;93839.91;;;10.29;100.00
28911;BME280;16028;42.642;23.310;2023-03-22T12:04:53;93843.16;;;10.31;100.00
28911;BME280;16028;42.642;23.310;2023-03-22T12:07:21;93841.25;;;10.33;100.00
28911;BME280;16028;42.642;23.310;2023-03-22T12:09:50;93842.06;;;10.34;100.00
28911;BME280;16028;42.642;23.310;2023-03-22T12:12:19;93831.81;;;10.32;100.00
28911;BME280;16028;42.642;23.310;2023-03-22T12:14:48;93837.97;;;10.31;100.00
28911;BME280;16028;42.642;23.310;2023-03-22T12:17:18;93834.41;;;10.32;100.00
28911;BME280;16028;42.642;23.310;2023-03-22T12:19:51;93830.56;;;10.36;100.00
28911;BME280;16028;42.642;23.310;2023-03-22T12:22:21;93831.84;;;10.40;100.00
28911;BME280;16028;42.642;23.310;2023-03-22T12:24:50;93836.75;;;10.43;100.00
28911;BME280;16028;42.642;23.310;2023-03-22T12:27:17;93832.06;;;10.47;100.00
28911;BME280;16028;42.642;23.310;2023-03-22T12:29:48;93836.47;;;10.46;100.00
28911;BME280;16028;42.642;23.310;2023-03-22T12:32:18;93833.06;;;10.46;100.00
28911;BME280;16028;42.642;23.310;2023-03-22T12:34:48;93816.34;;;10.48;100.00
28911;BME280;16028;42.642;23.310;2023-03-22T12:37:16;93816.69;;;10.53;100.00
28911;BME280;16028;42.642;23.310;2023-03-22T12:39:45;93816.84;;;10.52;100.00
28911;BME280;16028;42.642;23.310;2023-03-22T12:42:16;93813.00;;;10.56;100.00
28911;BME280;16028;42.642;23.310;2023-03-22T12:44:47;93817.19;;;10.57;100.00
28911;BME280;16028;42.642;23.310;2023-03-22T12:47:16;93816.44;;;10.65;100.00
28911;BME280;16028;42.642;23.310;2023-03-22T12:49:46;93807.41;;;10.77;100.00
28911;BME280;16028;42.642;23.310;2023-03-22T12:52:16;93809.38;;;10.75;100.00
28911;BME280;16028;42.642;23.310;2023-03-22T12:54:44;93811.66;;;10.78;100.00
28911;BME280;16028;42.642;23.310;2023-03-22T12:57:11;93809.25;;;10.84;100.00
28911;BME280;16028;42.642;23.310;2023-03-22T12:59:40;93816.16;;;11.01;100.00
28911;BME280;16028;42.642;23.310;2023-03-22T13:02:12;93814.25;;;11.03;100.00